sensor_id;sensor_type;location;lat;lon;timestamp;P1;durP1;ratioP1;P2;durP2;ratioP2
28629;SDS011;15817;42.130;24.762;2023-05-10T00:01:12;8.70;;;3.92;;
28629;SDS011;15817;42.130;24.762;2023-05-10T00:03:48;5.93;;;4.00;;
28629;SDS011;15817;42.130;24.762;2023-05-10T00:06:38;6.88;;;3.92;;
28629;SDS011;15817;42.130;24.762;2023-05-10T00:09:10;8.50;;;4.45;;
28629;SDS011;15817;42.130;24.762;2023-05-10T00:11:42;9.35;;;5.00;;
28629;SDS011;15817;42.130;24.762;2023-05-10T00:14:18;5.53;;;4.38;;
28629;SDS011;15817;42.130;24.762;2023-05-10T00:16:46;6.70;;;4.32;;
28629;SDS011;15817;42.130;24.762;2023-05-10T00:19:15;6.15;;;4.38;;
28629;SDS011;15817;42.130;24.762;2023-05-10T00:21:41;10.57;;;4.30;;
28629;SDS011;15817;42.130;24.762;2023-05-10T00:24:09;8.25;;;4.15;;
28629;SDS011;15817;42.130;24.762;2023-05-10T00:26:38;10.45;;;4.32;;
28629;SDS011;15817;42.130;24.762;2023-05-10T00:29:10;8.05;;;4.53;;
28629;SDS011;15817;42.130;24.762;2023-05-10T00:31:55;9.18;;;4.50;;
28629;SDS011;15817;42.130;24.762;2023-05-10T00:34:21;7.95;;;4.35;;
28629;SDS011;15817;42.130;24.762;2023-05-10T00:36:47;8.23;;;3.97;;
28629;SDS011;15817;42.130;24.762;2023-05-10T00:39:21;6.97;;;3.78;;
28629;SDS011;15817;42.130;24.762;2023-05-10T00:41:51;5.07;;;4.13;;
28629;SDS011;15817;42.130;24.762;2023-05-10T00:44:37;5.05;;;3.65;;
28629;SDS011;15817;42.130;24.762;2023-05-10T00:47:13;9.05;;;4.05;;
28629;SDS011;15817;42.130;24.762;2023-05-10T00:50:02;8.63;;;4.30;;
28629;SDS011;15817;42.130;24.762;2023-05-10T00:52:32;12.57;;;4.18;;
28629;SDS011;15817;42.130;24.762;2023-05-10T00:55:06;7.93;;;4.10;;
28629;SDS011;15817;42.130;24.762;2023-05-10T00:57:32;4.82;;;3.90;;
28629;SDS011;15817;42.130;24.762;2023-05-10T01:00:06;12.05;;;4.80;;
28629;SDS011;15817;42.130;24.762;2023-05-10T01:02:36;9.00;;;4.20;;
28629;SDS011;15817;42.130;24.762;2023-05-10T01:05:02;8.02;;;4.38;;
28629;SDS011;15817;42.130;24.762;2023-05-10T01:07:28;8.05;;;4.53;;
28629;SDS011;15817;42.130;24.762;2023-05-10T01:09:55;10.82;;;3.63;;
28629;SDS011;15817;42.130;24.762;2023-05-10T01:12:21;5.30;;;3.83;;
28629;SDS011;15817;42.130;24.762;2023-05-10T01:14:55;7.53;;;3.50;;
28629;SDS011;15817;42.130;24.762;2023-05-10T01:17:21;7.68;;;3.78;;
28629;SDS011;15817;42.130;24.762;2023-05-10T01:19:53;6.43;;;4.20;;
28629;SDS011;15817;42.130;24.762;2023-05-10T01:22:43;7.80;;;3.88;;
28629;SDS011;15817;42.130;24.762;2023-05-10T01:25:46;8.95;;;4.72;;
28629;SDS011;15817;42.130;24.762;2023-05-10T01:31:53;8.13;;;4.55;;
28629;SDS011;15817;42.130;24.762;2023-05-10T01:34:48;8.00;;;5.25;;
28629;SDS011;15817;42.130;24.762;2023-05-10T01:37:41;8.52;;;4.88;;
28629;SDS011;15817;42.130;24.762;2023-05-10T01:40:32;8.70;;;5.40;;
28629;SDS011;15817;42.130;24.762;2023-05-10T01:43:08;8.10;;;5.93;;
28629;SDS011;15817;42.130;24.762;2023-05-10T01:46:16;10.13;;;6.00;;
28629;SDS011;15817;42.130;24.762;2023-05-10T01:49:03;11.38;;;6.47;;
28629;SDS011;15817;42.130;24.762;2023-05-10T01:51:44;8.55;;;5.93;;
28629;SDS011;15817;42.130;24.762;2023-05-10T01:54:13;7.47;;;6.03;;
28629;SDS011;15817;42.130;24.762;2023-05-10T01:56:44;11.77;;;6.07;;
28629;SDS011;15817;42.130;24.762;2023-05-10T01:59:16;9.70;;;6.45;;
28629;SDS011;15817;42.130;24.762;2023-05-10T02:01:47;8.40;;;5.95;;
28629;SDS011;15817;42.130;24.762;2023-05-10T02:04:18;10.52;;;6.38;;
28629;SDS011;15817;42.130;24.762;2023-05-10T02:06:51;9.80;;;6.22;;
28629;SDS011;15817;42.130;24.762;2023-05-10T02:09:21;9.60;;;5.95;;
28629;SDS011;15817;42.130;24.762;2023-05-10T02:11:52;12.02;;;6.47;;
28629;SDS011;15817;42.130;24.762;2023-05-10T02:14:29;8.70;;;6.05;;
28629;SDS011;15817;42.130;24.762;2023-05-10T02:17:04;9.15;;;5.93;;
28629;SDS011;15817;42.130;24.762;2023-05-10T02:19:35;8.68;;;5.60;;
28629;SDS011;15817;42.130;24.762;2023-05-10T02:22:03;9.95;;;6.05;;
28629;SDS011;15817;42.130;24.762;2023-05-10T02:24:33;11.40;;;5.88;;
28629;SDS011;15817;42.130;24.762;2023-05-10T02:27:08;9.15;;;6.10;;
28629;SDS011;15817;42.130;24.762;2023-05-10T02:29:51;9.18;;;5.72;;
28629;SDS011;15817;42.130;24.762;2023-05-10T02:32:24;9.52;;;5.75;;
28629;SDS011;15817;42.130;24.762;2023-05-10T02:35:02;8.35;;;5.85;;
28629;SDS011;15817;42.130;24.762;2023-05-10T02:37:31;11.80;;;6.25;;
28629;SDS011;15817;42.130;24.762;2023-05-10T02:40:27;10.63;;;6.05;;
28629;SDS011;15817;42.130;24.762;2023-05-10T02:42:56;7.78;;;6.00;;
28629;SDS011;15817;42.130;24.762;2023-05-10T02:45:27;7.40;;;5.80;;
28629;SDS011;15817;42.130;24.762;2023-05-10T02:48:04;8.35;;;5.80;;
28629;SDS011;15817;42.130;24.762;2023-05-10T02:50:38;8.45;;;5.70;;
28629;SDS011;15817;42.130;24.762;2023-05-10T02:53:41;12.98;;;5.30;;
28629;SDS011;15817;42.130;24.762;2023-05-10T02:56:13;8.60;;;5.63;;
28629;SDS011;15817;42.130;24.762;2023-05-10T02:58:48;9.90;;;6.20;;
28629;SDS011;15817;42.130;24.762;2023-05-10T03:01:31;8.60;;;5.20;;
28629;SDS011;15817;42.130;24.762;2023-05-10T03:04:00;6.47;;;5.00;;
28629;SDS011;15817;42.130;24.762;2023-05-10T03:06:37;9.57;;;5.57;;
28629;SDS011;15817;42.130;24.762;2023-05-10T03:09:13;12.23;;;5.38;;
28629;SDS011;15817;42.130;24.762;2023-05-10T03:17:06;7.40;;;5.53;;
28629;SDS011;15817;42.130;24.762;2023-05-10T03:19:57;9.32;;;4.90;;
28629;SDS011;15817;42.130;24.762;2023-05-10T03:22:32;12.05;;;5.40;;
28629;SDS011;15817;42.130;24.762;2023-05-10T03:25:07;8.15;;;5.65;;
28629;SDS011;15817;42.130;24.762;2023-05-10T03:27:43;7.70;;;4.93;;
28629;SDS011;15817;42.130;24.762;2023-05-10T03:30:11;9.40;;;5.30;;
28629;SDS011;15817;42.130;24.762;2023-05-10T03:32:38;13.25;;;5.78;;
28629;SDS011;15817;42.130;24.762;2023-05-10T03:35:07;8.40;;;5.10;;
28629;SDS011;15817;42.130;24.762;2023-05-10T03:37:34;8.60;;;5.68;;
28629;SDS011;15817;42.130;24.762;2023-05-10T03:40:12;7.15;;;5.22;;
28629;SDS011;15817;42.130;24.762;2023-05-10T03:42:44;8.23;;;6.00;;
28629;SDS011;15817;42.130;24.762;2023-05-10T03:45:10;9.52;;;6.40;;
28629;SDS011;15817;42.130;24.762;2023-05-10T03:47:38;12.68;;;5.80;;
28629;SDS011;15817;42.130;24.762;2023-05-10T03:50:07;10.40;;;5.40;;
28629;SDS011;15817;42.130;24.762;2023-05-10T03:57:00;10.73;;;6.15;;
28629;SDS011;15817;42.130;24.762;2023-05-10T03:59:33;8.98;;;5.70;;
28629;SDS011;15817;42.130;24.762;2023-05-10T04:02:01;14.50;;;6.78;;
28629;SDS011;15817;42.130;24.762;2023-05-10T04:04:35;11.40;;;6.13;;
28629;SDS011;15817;42.130;24.762;2023-05-10T04:07:02;9.32;;;5.25;;
28629;SDS011;15817;42.130;24.762;2023-05-10T04:09:31;7.00;;;5.60;;
28629;SDS011;15817;42.130;24.762;2023-05-10T04:12:00;10.70;;;5.53;;
28629;SDS011;15817;42.130;24.762;2023-05-10T04:14:30;9.57;;;5.57;;
28629;SDS011;15817;42.130;24.762;2023-05-10T04:16:56;11.52;;;5.47;;
28629;SDS011;15817;42.130;24.762;2023-05-10T04:19:22;9.80;;;5.47;;
28629;SDS011;15817;42.130;24.762;2023-05-10T04:21:49;11.70;;;6.72;;
28629;SDS011;15817;42.130;24.762;2023-05-10T04:24:14;10.80;;;6.70;;
28629;SDS011;15817;42.130;24.762;2023-05-10T04:26:40;9.65;;;6.20;;
28629;SDS011;15817;42.130;24.762;2023-05-10T04:29:06;9.90;;;6.10;;
28629;SDS011;15817;42.130;24.762;2023-05-10T04:31:32;11.85;;;6.28;;
28629;SDS011;15817;42.130;24.762;2023-05-10T04:33:58;10.82;;;6.45;;
28629;SDS011;15817;42.130;24.762;2023-05-10T04:36:23;11.70;;;6.32;;
28629;SDS011;15817;42.130;24.762;2023-05-10T04:38:49;10.43;;;6.53;;
28629;SDS011;15817;42.130;24.762;2023-05-10T04:41:18;9.73;;;6.10;;
28629;SDS011;15817;42.130;24.762;2023-05-10T04:43:44;12.60;;;5.82;;
28629;SDS011;15817;42.130;24.762;2023-05-10T04:46:09;11.52;;;5.85;;
28629;SDS011;15817;42.130;24.762;2023-05-10T04:48:35;10.30;;;5.65;;
28629;SDS011;15817;42.130;24.762;2023-05-10T04:51:01;15.15;;;5.78;;
28629;SDS011;15817;42.130;24.762;2023-05-10T04:53:28;9.18;;;5.55;;
28629;SDS011;15817;42.130;24.762;2023-05-10T04:55:54;7.35;;;5.47;;
28629;SDS011;15817;42.130;24.762;2023-05-10T04:58:23;9.10;;;6.13;;
28629;SDS011;15817;42.130;24.762;2023-05-10T05:00:49;11.95;;;5.60;;
28629;SDS011;15817;42.130;24.762;2023-05-10T05:03:15;9.38;;;5.70;;
28629;SDS011;15817;42.130;24.762;2023-05-10T05:05:41;7.18;;;4.72;;
28629;SDS011;15817;42.130;24.762;2023-05-10T05:08:07;7.03;;;5.10;;
28629;SDS011;15817;42.130;24.762;2023-05-10T05:10:33;8.20;;;5.63;;
28629;SDS011;15817;42.130;24.762;2023-05-10T05:12:58;11.48;;;5.70;;
28629;SDS011;15817;42.130;24.762;2023-05-10T05:15:24;8.23;;;5.65;;
28629;SDS011;15817;42.130;24.762;2023-05-10T05:17:50;9.48;;;5.07;;
28629;SDS011;15817;42.130;24.762;2023-05-10T05:20:16;11.07;;;5.55;;
28629;SDS011;15817;42.130;24.762;2023-05-10T05:22:44;10.73;;;5.10;;
28629;SDS011;15817;42.130;24.762;2023-05-10T05:25:10;6.10;;;4.53;;
28629;SDS011;15817;42.130;24.762;2023-05-10T05:27:37;7.57;;;5.05;;
28629;SDS011;15817;42.130;24.762;2023-05-10T05:30:02;11.48;;;5.15;;
28629;SDS011;15817;42.130;24.762;2023-05-10T05:32:29;17.27;;;5.22;;
28629;SDS011;15817;42.130;24.762;2023-05-10T05:34:55;9.05;;;5.28;;
28629;SDS011;15817;42.130;24.762;2023-05-10T05:37:24;11.40;;;5.60;;
28629;SDS011;15817;42.130;24.762;2023-05-10T05:39:52;13.85;;;5.38;;
28629;SDS011;15817;42.130;24.762;2023-05-10T05:42:19;11.98;;;5.55;;
28629;SDS011;15817;42.130;24.762;2023-05-10T05:44:45;6.57;;;4.97;;
28629;SDS011;15817;42.130;24.762;2023-05-10T05:47:11;7.07;;;5.47;;
28629;SDS011;15817;42.130;24.762;2023-05-10T05:49:37;9.38;;;5.38;;
28629;SDS011;15817;42.130;24.762;2023-05-10T05:52:03;9.52;;;5.18;;
28629;SDS011;15817;42.130;24.762;2023-05-10T05:54:32;8.65;;;5.38;;
28629;SDS011;15817;42.130;24.762;2023-05-10T05:56:59;10.80;;;6.47;;
28629;SDS011;15817;42.130;24.762;2023-05-10T06:20:19;11.38;;;6.03;;
28629;SDS011;15817;42.130;24.762;2023-05-10T06:22:48;11.48;;;6.10;;
28629;SDS011;15817;42.130;24.762;2023-05-10T06:27:45;7.55;;;5.03;;
28629;SDS011;15817;42.130;24.762;2023-05-10T06:30:26;6.72;;;4.60;;
28629;SDS011;15817;42.130;24.762;2023-05-10T06:32:53;10.77;;;4.75;;
28629;SDS011;15817;42.130;24.762;2023-05-10T06:35:20;9.65;;;4.93;;
28629;SDS011;15817;42.130;24.762;2023-05-10T06:37:46;5.68;;;4.20;;
28629;SDS011;15817;42.130;24.762;2023-05-10T06:40:12;7.82;;;4.50;;
28629;SDS011;15817;42.130;24.762;2023-05-10T06:42:38;6.72;;;4.38;;
28629;SDS011;15817;42.130;24.762;2023-05-10T06:45:04;9.02;;;4.85;;
28629;SDS011;15817;42.130;24.762;2023-05-10T06:47:41;9.30;;;4.22;;
28629;SDS011;15817;42.130;24.762;2023-05-10T06:50:07;8.02;;;4.20;;
28629;SDS011;15817;42.130;24.762;2023-05-10T06:52:34;7.70;;;3.65;;
28629;SDS011;15817;42.130;24.762;2023-05-10T06:55:00;6.53;;;4.22;;
28629;SDS011;15817;42.130;24.762;2023-05-10T06:57:26;7.47;;;4.22;;
28629;SDS011;15817;42.130;24.762;2023-05-10T06:59:51;7.72;;;4.45;;
28629;SDS011;15817;42.130;24.762;2023-05-10T07:02:17;7.93;;;4.57;;
28629;SDS011;15817;42.130;24.762;2023-05-10T07:04:43;7.20;;;4.03;;
28629;SDS011;15817;42.130;24.762;2023-05-10T07:07:15;6.85;;;4.63;;
28629;SDS011;15817;42.130;24.762;2023-05-10T07:09:44;11.57;;;4.60;;
28629;SDS011;15817;42.130;24.762;2023-05-10T07:12:10;5.60;;;4.10;;
28629;SDS011;15817;42.130;24.762;2023-05-10T07:14:36;5.95;;;4.25;;
28629;SDS011;15817;42.130;24.762;2023-05-10T07:17:05;8.75;;;4.28;;
28629;SDS011;15817;42.130;24.762;2023-05-10T07:19:34;5.18;;;4.30;;
28629;SDS011;15817;42.130;24.762;2023-05-10T07:22:01;6.50;;;4.15;;
28629;SDS011;15817;42.130;24.762;2023-05-10T07:24:26;9.93;;;4.43;;
28629;SDS011;15817;42.130;24.762;2023-05-10T07:26:52;9.43;;;3.53;;
28629;SDS011;15817;42.130;24.762;2023-05-10T07:29:21;7.00;;;3.53;;
28629;SDS011;15817;42.130;24.762;2023-05-10T07:31:46;7.90;;;4.05;;
28629;SDS011;15817;42.130;24.762;2023-05-10T07:34:12;6.63;;;3.78;;
28629;SDS011;15817;42.130;24.762;2023-05-10T07:36:38;5.70;;;3.63;;
28629;SDS011;15817;42.130;24.762;2023-05-10T07:39:07;4.60;;;3.90;;
28629;SDS011;15817;42.130;24.762;2023-05-10T07:41:40;8.77;;;4.28;;
28629;SDS011;15817;42.130;24.762;2023-05-10T07:44:06;8.85;;;4.55;;
28629;SDS011;15817;42.130;24.762;2023-05-10T07:46:32;4.93;;;3.65;;
28629;SDS011;15817;42.130;24.762;2023-05-10T07:48:58;11.00;;;5.20;;
28629;SDS011;15817;42.130;24.762;2023-05-10T07:51:26;7.20;;;4.20;;
28629;SDS011;15817;42.130;24.762;2023-05-10T07:53:55;6.15;;;4.13;;
28629;SDS011;15817;42.130;24.762;2023-05-10T07:56:26;11.32;;;3.90;;
28629;SDS011;15817;42.130;24.762;2023-05-10T07:58:55;14.55;;;3.97;;
28629;SDS011;15817;42.130;24.762;2023-05-10T08:01:24;6.55;;;4.43;;
28629;SDS011;15817;42.130;24.762;2023-05-10T08:03:51;9.20;;;4.05;;
28629;SDS011;15817;42.130;24.762;2023-05-10T08:06:18;16.27;;;4.68;;
28629;SDS011;15817;42.130;24.762;2023-05-10T08:08:46;7.28;;;4.13;;
28629;SDS011;15817;42.130;24.762;2023-05-10T08:11:17;5.10;;;3.75;;
28629;SDS011;15817;42.130;24.762;2023-05-10T08:13:47;9.57;;;3.35;;
28629;SDS011;15817;42.130;24.762;2023-05-10T08:16:14;5.78;;;3.70;;
28629;SDS011;15817;42.130;24.762;2023-05-10T08:18:43;6.18;;;3.50;;
28629;SDS011;15817;42.130;24.762;2023-05-10T08:21:13;5.93;;;3.70;;
28629;SDS011;15817;42.130;24.762;2023-05-10T08:23:39;8.27;;;4.18;;
28629;SDS011;15817;42.130;24.762;2023-05-10T08:26:08;5.90;;;3.58;;
28629;SDS011;15817;42.130;24.762;2023-05-10T08:28:35;6.13;;;3.15;;
28629;SDS011;15817;42.130;24.762;2023-05-10T08:31:01;6.35;;;3.58;;
28629;SDS011;15817;42.130;24.762;2023-05-10T08:33:26;6.10;;;3.40;;
28629;SDS011;15817;42.130;24.762;2023-05-10T08:35:52;5.22;;;3.10;;
28629;SDS011;15817;42.130;24.762;2023-05-10T08:38:18;6.38;;;3.55;;
28629;SDS011;15817;42.130;24.762;2023-05-10T08:40:44;9.18;;;3.60;;
28629;SDS011;15817;42.130;24.762;2023-05-10T08:43:11;7.90;;;3.22;;
28629;SDS011;15817;42.130;24.762;2023-05-10T08:45:41;5.38;;;3.35;;
28629;SDS011;15817;42.130;24.762;2023-05-10T08:48:10;5.55;;;3.88;;
28629;SDS011;15817;42.130;24.762;2023-05-10T08:50:37;5.72;;;3.88;;
28629;SDS011;15817;42.130;24.762;2023-05-10T08:53:06;4.95;;;3.42;;
28629;SDS011;15817;42.130;24.762;2023-05-10T08:55:36;5.50;;;3.63;;
28629;SDS011;15817;42.130;24.762;2023-05-10T08:58:06;5.03;;;3.20;;
28629;SDS011;15817;42.130;24.762;2023-05-10T09:00:33;4.95;;;3.30;;
28629;SDS011;15817;42.130;24.762;2023-05-10T09:03:00;8.48;;;3.60;;
28629;SDS011;15817;42.130;24.762;2023-05-10T09:05:31;5.15;;;3.50;;
28629;SDS011;15817;42.130;24.762;2023-05-10T09:08:01;4.72;;;3.30;;
28629;SDS011;15817;42.130;24.762;2023-05-10T09:10:27;8.80;;;3.30;;
28629;SDS011;15817;42.130;24.762;2023-05-10T09:12:55;4.07;;;3.60;;
28629;SDS011;15817;42.130;24.762;2023-05-10T09:15:22;3.45;;;3.08;;
28629;SDS011;15817;42.130;24.762;2023-05-10T09:17:49;5.65;;;3.45;;
28629;SDS011;15817;42.130;24.762;2023-05-10T09:20:15;4.30;;;3.90;;
28629;SDS011;15817;42.130;24.762;2023-05-10T09:22:42;8.07;;;3.70;;
28629;SDS011;15817;42.130;24.762;2023-05-10T09:25:12;4.07;;;3.38;;
28629;SDS011;15817;42.130;24.762;2023-05-10T09:27:41;4.97;;;3.10;;
28629;SDS011;15817;42.130;24.762;2023-05-10T09:30:10;4.82;;;2.90;;
28629;SDS011;15817;42.130;24.762;2023-05-10T09:32:43;6.53;;;3.47;;
28629;SDS011;15817;42.130;24.762;2023-05-10T09:35:10;5.57;;;3.08;;
28629;SDS011;15817;42.130;24.762;2023-05-10T09:37:42;5.35;;;3.08;;
28629;SDS011;15817;42.130;24.762;2023-05-10T09:40:13;4.25;;;3.15;;
28629;SDS011;15817;42.130;24.762;2023-05-10T09:42:42;6.93;;;3.58;;
28629;SDS011;15817;42.130;24.762;2023-05-10T09:45:15;5.85;;;3.28;;
28629;SDS011;15817;42.130;24.762;2023-05-10T09:47:41;3.10;;;2.80;;
28629;SDS011;15817;42.130;24.762;2023-05-10T09:50:09;7.07;;;3.70;;
28629;SDS011;15817;42.130;24.762;2023-05-10T09:55:18;6.07;;;3.08;;
28629;SDS011;15817;42.130;24.762;2023-05-10T09:57:46;5.13;;;3.05;;
28629;SDS011;15817;42.130;24.762;2023-05-10T10:00:17;4.82;;;3.03;;
28629;SDS011;15817;42.130;24.762;2023-05-10T10:02:45;4.07;;;3.13;;
28629;SDS011;15817;42.130;24.762;2023-05-10T10:05:13;10.48;;;3.25;;
28629;SDS011;15817;42.130;24.762;2023-05-10T10:07:47;10.15;;;3.60;;
28629;SDS011;15817;42.130;24.762;2023-05-10T10:10:23;4.70;;;3.20;;
28629;SDS011;15817;42.130;24.762;2023-05-10T10:12:58;6.28;;;3.25;;
28629;SDS011;15817;42.130;24.762;2023-05-10T10:15:25;6.25;;;3.20;;
28629;SDS011;15817;42.130;24.762;2023-05-10T10:17:55;5.53;;;2.78;;
28629;SDS011;15817;42.130;24.762;2023-05-10T10:20:28;6.00;;;2.80;;
28629;SDS011;15817;42.130;24.762;2023-05-10T10:23:54;8.70;;;2.60;;
28629;SDS011;15817;42.130;24.762;2023-05-10T10:26:43;4.57;;;2.92;;
28629;SDS011;15817;42.130;24.762;2023-05-10T10:32:42;4.63;;;2.88;;
28629;SDS011;15817;42.130;24.762;2023-05-10T10:35:13;4.60;;;3.22;;
28629;SDS011;15817;42.130;24.762;2023-05-10T10:37:47;5.15;;;3.42;;
28629;SDS011;15817;42.130;24.762;2023-05-10T10:40:25;6.45;;;2.88;;
28629;SDS011;15817;42.130;24.762;2023-05-10T10:42:58;4.50;;;3.03;;
28629;SDS011;15817;42.130;24.762;2023-05-10T10:48:51;3.65;;;3.30;;
28629;SDS011;15817;42.130;24.762;2023-05-10T10:51:40;5.10;;;3.58;;
28629;SDS011;15817;42.130;24.762;2023-05-10T10:54:53;4.13;;;2.97;;
28629;SDS011;15817;42.130;24.762;2023-05-10T10:57:49;3.13;;;2.83;;
28629;SDS011;15817;42.130;24.762;2023-05-10T11:00:28;4.20;;;3.30;;
28629;SDS011;15817;42.130;24.762;2023-05-10T11:03:10;5.25;;;3.55;;
28629;SDS011;15817;42.130;24.762;2023-05-10T11:08:41;5.43;;;2.90;;
28629;SDS011;15817;42.130;24.762;2023-05-10T11:11:17;6.80;;;4.20;;
28629;SDS011;15817;42.130;24.762;2023-05-10T11:13:50;6.07;;;5.00;;
28629;SDS011;15817;42.130;24.762;2023-05-10T11:16:19;4.07;;;3.60;;
28629;SDS011;15817;42.130;24.762;2023-05-10T11:19:03;4.53;;;3.13;;
28629;SDS011;15817;42.130;24.762;2023-05-10T11:21:32;5.25;;;3.03;;
28629;SDS011;15817;42.130;24.762;2023-05-10T11:31:08;5.25;;;2.80;;
28629;SDS011;15817;42.130;24.762;2023-05-10T11:33:44;4.60;;;2.90;;
28629;SDS011;15817;42.130;24.762;2023-05-10T11:39:19;4.00;;;2.90;;
28629;SDS011;15817;42.130;24.762;2023-05-10T11:41:51;4.30;;;2.90;;
28629;SDS011;15817;42.130;24.762;2023-05-10T11:44:22;8.48;;;2.83;;
28629;SDS011;15817;42.130;24.762;2023-05-10T11:47:18;4.22;;;2.70;;
28629;SDS011;15817;42.130;24.762;2023-05-10T11:49:47;4.90;;;2.97;;
28629;SDS011;15817;42.130;24.762;2023-05-10T11:52:22;3.47;;;3.17;;
28629;SDS011;15817;42.130;24.762;2023-05-10T11:54:54;2.83;;;2.63;;
28629;SDS011;15817;42.130;24.762;2023-05-10T11:57:20;5.82;;;3.67;;
28629;SDS011;15817;42.130;24.762;2023-05-10T11:59:56;6.97;;;3.65;;
28629;SDS011;15817;42.130;24.762;2023-05-10T12:02:23;3.70;;;3.38;;
28629;SDS011;15817;42.130;24.762;2023-05-10T12:04:51;4.43;;;3.17;;
28629;SDS011;15817;42.130;24.762;2023-05-10T12:07:18;4.28;;;3.20;;
28629;SDS011;15817;42.130;24.762;2023-05-10T12:09:44;5.90;;;3.60;;
28629;SDS011;15817;42.130;24.762;2023-05-10T12:12:20;3.75;;;3.40;;
28629;SDS011;15817;42.130;24.762;2023-05-10T12:14:53;3.25;;;2.95;;
28629;SDS011;15817;42.130;24.762;2023-05-10T12:17:21;7.82;;;3.80;;
28629;SDS011;15817;42.130;24.762;2023-05-10T12:19:52;3.55;;;3.00;;
28629;SDS011;15817;42.130;24.762;2023-05-10T12:22:23;3.15;;;2.85;;
28629;SDS011;15817;42.130;24.762;2023-05-10T12:24:51;4.85;;;4.00;;
28629;SDS011;15817;42.130;24.762;2023-05-10T12:27:17;4.40;;;3.70;;
28629;SDS011;15817;42.130;24.762;2023-05-10T12:29:43;6.43;;;4.70;;
28629;SDS011;15817;42.130;24.762;2023-05-10T12:32:39;6.07;;;4.82;;
28629;SDS011;15817;42.130;24.762;2023-05-10T12:35:07;5.55;;;4.55;;
28629;SDS011;15817;42.130;24.762;2023-05-10T12:37:35;5.18;;;4.07;;
28629;SDS011;15817;42.130;24.762;2023-05-10T12:40:21;6.70;;;4.68;;
28629;SDS011;15817;42.130;24.762;2023-05-10T12:43:06;6.38;;;4.68;;
28629;SDS011;15817;42.130;24.762;2023-05-10T12:45:43;4.97;;;4.47;;
28629;SDS011;15817;42.130;24.762;2023-05-10T12:48:15;5.43;;;4.57;;
28629;SDS011;15817;42.130;24.762;2023-05-10T12:50:41;5.72;;;4.28;;
28629;SDS011;15817;42.130;24.762;2023-05-10T12:53:16;6.72;;;4.80;;
28629;SDS011;15817;42.130;24.762;2023-05-10T12:56:08;5.20;;;4.70;;
28629;SDS011;15817;42.130;24.762;2023-05-10T12:58:36;5.63;;;4.55;;
28629;SDS011;15817;42.130;24.762;2023-05-10T13:04:11;4.78;;;4.28;;
28629;SDS011;15817;42.130;24.762;2023-05-10T13:07:38;5.22;;;3.55;;
28629;SDS011;15817;42.130;24.762;2023-05-10T13:09:35;7.22;;;3.95;;
28629;SDS011;15817;42.130;24.762;2023-05-10T13:12:04;4.65;;;4.20;;
28629;SDS011;15817;42.130;24.762;2023-05-10T13:14:50;4.60;;;4.13;;
28629;SDS011;15817;42.130;24.762;2023-05-10T13:17:25;4.18;;;3.70;;
28629;SDS011;15817;42.130;24.762;2023-05-10T13:20:04;4.57;;;4.18;;
28629;SDS011;15817;42.130;24.762;2023-05-10T13:22:31;4.28;;;3.85;;
28629;SDS011;15817;42.130;24.762;2023-05-10T13:24:56;4.60;;;4.20;;
28629;SDS011;15817;42.130;24.762;2023-05-10T13:27:25;5.45;;;4.10;;
28629;SDS011;15817;42.130;24.762;2023-05-10T13:29:53;7.35;;;3.70;;
28629;SDS011;15817;42.130;24.762;2023-05-10T13:32:26;6.53;;;4.03;;
28629;SDS011;15817;42.130;24.762;2023-05-10T13:34:55;6.43;;;4.88;;
28629;SDS011;15817;42.130;24.762;2023-05-10T13:37:24;6.68;;;5.45;;
28629;SDS011;15817;42.130;24.762;2023-05-10T13:39:52;5.10;;;4.60;;
28629;SDS011;15817;42.130;24.762;2023-05-10T13:42:18;5.70;;;4.32;;
28629;SDS011;15817;42.130;24.762;2023-05-10T13:44:44;6.60;;;5.38;;
28629;SDS011;15817;42.130;24.762;2023-05-10T13:47:13;5.30;;;4.80;;
28629;SDS011;15817;42.130;24.762;2023-05-10T13:49:38;5.07;;;4.57;;
28629;SDS011;15817;42.130;24.762;2023-05-10T13:52:08;8.95;;;4.93;;
28629;SDS011;15817;42.130;24.762;2023-05-10T13:54:35;7.05;;;5.10;;
28629;SDS011;15817;42.130;24.762;2023-05-10T13:57:02;7.78;;;5.68;;
28629;SDS011;15817;42.130;24.762;2023-05-10T13:59:28;7.72;;;5.80;;
28629;SDS011;15817;42.130;24.762;2023-05-10T14:01:57;6.38;;;5.50;;
28629;SDS011;15817;42.130;24.762;2023-05-10T14:04:26;7.00;;;5.85;;
28629;SDS011;15817;42.130;24.762;2023-05-10T14:06:55;6.47;;;5.95;;
28629;SDS011;15817;42.130;24.762;2023-05-10T14:09:37;6.72;;;6.03;;
28629;SDS011;15817;42.130;24.762;2023-05-10T14:12:37;6.03;;;5.43;;
28629;SDS011;15817;42.130;24.762;2023-05-10T14:15:55;5.63;;;5.05;;
28629;SDS011;15817;42.130;24.762;2023-05-10T14:18:21;6.00;;;5.40;;
28629;SDS011;15817;42.130;24.762;2023-05-10T14:23:51;5.47;;;4.90;;
28629;SDS011;15817;42.130;24.762;2023-05-10T14:29:38;6.05;;;5.43;;
28629;SDS011;15817;42.130;24.762;2023-05-10T14:32:27;5.85;;;4.05;;
28629;SDS011;15817;42.130;24.762;2023-05-10T14:39:01;6.93;;;4.18;;
28629;SDS011;15817;42.130;24.762;2023-05-10T14:44:46;4.60;;;4.15;;
28629;SDS011;15817;42.130;24.762;2023-05-10T14:47:18;4.88;;;4.43;;
28629;SDS011;15817;42.130;24.762;2023-05-10T14:49:48;5.65;;;3.97;;
28629;SDS011;15817;42.130;24.762;2023-05-10T14:52:17;7.03;;;3.80;;
28629;SDS011;15817;42.130;24.762;2023-05-10T14:55:06;4.68;;;3.85;;
28629;SDS011;15817;42.130;24.762;2023-05-10T14:57:42;4.13;;;3.47;;
28629;SDS011;15817;42.130;24.762;2023-05-10T15:00:25;4.07;;;3.67;;
28629;SDS011;15817;42.130;24.762;2023-05-10T15:03:04;4.03;;;3.63;;
28629;SDS011;15817;42.130;24.762;2023-05-10T15:06:08;6.65;;;3.33;;
28629;SDS011;15817;42.130;24.762;2023-05-10T15:08:41;6.45;;;3.70;;
28629;SDS011;15817;42.130;24.762;2023-05-10T15:11:07;3.80;;;3.50;;
28629;SDS011;15817;42.130;24.762;2023-05-10T15:13:32;5.07;;;3.50;;
28629;SDS011;15817;42.130;24.762;2023-05-10T15:16:01;6.78;;;3.92;;
28629;SDS011;15817;42.130;24.762;2023-05-10T15:18:30;4.32;;;3.92;;
28629;SDS011;15817;42.130;24.762;2023-05-10T15:20:59;6.15;;;3.60;;
28629;SDS011;15817;42.130;24.762;2023-05-10T15:23:25;5.63;;;4.03;;
28629;SDS011;15817;42.130;24.762;2023-05-10T15:30:03;6.40;;;3.30;;
28629;SDS011;15817;42.130;24.762;2023-05-10T15:32:29;3.90;;;3.60;;
28629;SDS011;15817;42.130;24.762;2023-05-10T15:35:23;5.60;;;3.17;;
28629;SDS011;15817;42.130;24.762;2023-05-10T15:45:39;3.22;;;2.90;;
28629;SDS011;15817;42.130;24.762;2023-05-10T16:21:34;3.53;;;3.17;;
28629;SDS011;15817;42.130;24.762;2023-05-10T16:28:06;3.95;;;3.10;;
28629;SDS011;15817;42.130;24.762;2023-05-10T16:30:37;4.65;;;3.28;;
28629;SDS011;15817;42.130;24.762;2023-05-10T16:33:36;4.30;;;3.90;;
28629;SDS011;15817;42.130;24.762;2023-05-10T16:36:25;4.97;;;3.50;;
28629;SDS011;15817;42.130;24.762;2023-05-10T16:51:46;5.22;;;2.97;;
28629;SDS011;15817;42.130;24.762;2023-05-10T16:54:20;4.07;;;2.97;;
28629;SDS011;15817;42.130;24.762;2023-05-10T16:57:15;5.15;;;3.25;;
28629;SDS011;15817;42.130;24.762;2023-05-10T16:59:41;5.35;;;3.90;;
28629;SDS011;15817;42.130;24.762;2023-05-10T17:02:18;4.00;;;3.60;;
28629;SDS011;15817;42.130;24.762;2023-05-10T17:04:59;4.30;;;3.40;;
28629;SDS011;15817;42.130;24.762;2023-05-10T17:11:42;5.85;;;3.80;;
28629;SDS011;15817;42.130;24.762;2023-05-10T17:14:03;4.07;;;3.63;;
28629;SDS011;15817;42.130;24.762;2023-05-10T17:16:32;6.47;;;3.38;;
28629;SDS011;15817;42.130;24.762;2023-05-10T17:19:08;3.53;;;3.22;;
28629;SDS011;15817;42.130;24.762;2023-05-10T17:21:34;4.80;;;3.17;;
28629;SDS011;15817;42.130;24.762;2023-05-10T17:24:05;5.43;;;3.40;;